Charlottesville, VA

10:26 PM EDT on September 21, 2014 (GMT -0400)
Off Hydraulic Road | Change Station
CLOSE
Current Station
Personal Weather Station
Location: Charlottesville, VA
Elevation: 558 ft
Nearby Weather Stations

Elev 558 ft 38.08 °N, 78.50 °W | Updated 13 seconds ago

Mostly Cloudy
Mostly Cloudy
72.4 °F
Feels Like 73 °F
N
0.0
Wind Variable Wind from North
Gusts 0.0 mph

Today
High -- | Low -- °F
--% Chance of Precip.
Yesterday
High -- | Low -- °F
Precip. -- in
7:00 AM 7:12 PM
Waning Crescent, 4% visible
Pressure 29.74 in
Visibility 10.0 miles
Clouds Overcast 6500 ft
Heat Index 73 °F
Dew Point 66 °F
Humidity 79%
Rainfall 0.00 in
Snow Depth Not available.
UV 0 out of 12
Pollen 5.80 out of 12
Air Quality Not available.
Flu Activity Not available.
METAR KCHO 220153Z VRB03KT 10SM OVC065 24/16 A2976 RMK AO2 SLP070 T02440161

More Conditions Fewer Conditions

Pressure 29.74 in
Visibility 10.0 miles
Clouds Overcast 6500 ft
Heat Index 73 °F
Dew Point 66 °F
Humidity 79%
Rainfall 0.00 in
Snow Depth Not available.
UV 0 out of 12
Pollen 5.80 out of 12
Air Quality Not available.
Flu Activity Not available.
METAR KCHO 220153Z VRB03KT 10SM OVC065 24/16 A2976 RMK AO2 SLP070 T02440161

More Conditions Fewer Conditions

10-Day Weather Forecast

Almanac

Astronomy

Sep. 21, 2014 Rise Set
Actual Time 7:00 AM EDT 7:12 PM EDT
Civil Twilight 6:34 AM EDT 7:38 PM EDT
Nautical Twilight 6:03 AM EDT 8:09 PM EDT
Astronomical Twilight 5:32 AM EDT 8:40 PM EDT
Moon 4:34 AM EDT (9/21) 5:46 PM EDT (9/21)
Length of Visible Light 13h 04m
Length of Day
12h 11m
Tomorrow will be 2m 26s shorter.
Waning Crescent, 4% of the Moon is Illuminated
Today
Waning Crescent
Sep 24
New
Oct 1
First Quarter
Oct 8
Full
Oct 15
Last Quarter

Today's Extremes

State Highs State Lows

Community

WunderPhotos

Upload Photos

1,755,364 photos uploaded!

WunderBlogs® & News

Nearby

Snow Depth

Station Depth Elevation
No new snow has been reported.

Earthquake Activity

City Distance Mag. Time & Date
No recent earthquake activity has been reported nearby.
Minimum magnitude displayed is 2.5.

Coastal Water Temperatures

Place Temperature
No Stations Reporting

Nearby Weather Stations